sensor_id;sensor_type;location;lat;lon;timestamp;P1;P2;P0
78408;PMS5003;67697;50.750;-3.270;2024-03-06T00:01:43;26;22;
78408;PMS5003;67697;50.750;-3.270;2024-03-06T00:04:08;20;17;
78408;PMS5003;67697;50.750;-3.270;2024-03-06T00:06:34;24;20;
78408;PMS5003;67697;50.750;-3.270;2024-03-06T00:09:00;25;21;
78408;PMS5003;67697;50.750;-3.270;2024-03-06T00:11:26;20;17;
78408;PMS5003;67697;50.750;-3.270;2024-03-06T00:13:51;16;16;
78408;PMS5003;67697;50.750;-3.270;2024-03-06T00:16:16;24;14;
78408;PMS5003;67697;50.750;-3.270;2024-03-06T00:18:42;22;18;
78408;PMS5003;67697;50.750;-3.270;2024-03-06T00:21:07;19;17;
78408;PMS5003;67697;50.750;-3.270;2024-03-06T00:23:33;21;19;
78408;PMS5003;67697;50.750;-3.270;2024-03-06T00:25:59;16;14;
78408;PMS5003;67697;50.750;-3.270;2024-03-06T00:28:24;24;20;
78408;PMS5003;67697;50.750;-3.270;2024-03-06T00:30:50;21;18;
78408;PMS5003;67697;50.750;-3.270;2024-03-06T00:33:16;25;21;
78408;PMS5003;67697;50.750;-3.270;2024-03-06T00:35:42;21;16;
78408;PMS5003;67697;50.750;-3.270;2024-03-06T00:38:07;22;18;
78408;PMS5003;67697;50.750;-3.270;2024-03-06T00:40:33;22;18;
78408;PMS5003;67697;50.750;-3.270;2024-03-06T00:43:00;24;21;
78408;PMS5003;67697;50.750;-3.270;2024-03-06T00:45:23;21;19;
78408;PMS5003;67697;50.750;-3.270;2024-03-06T00:47:48;21;21;
78408;PMS5003;67697;50.750;-3.270;2024-03-06T00:50:14;14;14;
78408;PMS5003;67697;50.750;-3.270;2024-03-06T00:52:39;22;21;
78408;PMS5003;67697;50.750;-3.270;2024-03-06T00:55:05;26;23;
78408;PMS5003;67697;50.750;-3.270;2024-03-06T00:57:30;15;15;
78408;PMS5003;67697;50.750;-3.270;2024-03-06T00:59:56;24;18;
78408;PMS5003;67697;50.750;-3.270;2024-03-06T01:02:22;18;16;
78408;PMS5003;67697;50.750;-3.270;2024-03-06T01:04:47;20;17;
78408;PMS5003;67697;50.750;-3.270;2024-03-06T01:07:13;26;20;
78408;PMS5003;67697;50.750;-3.270;2024-03-06T01:09:39;23;19;
78408;PMS5003;67697;50.750;-3.270;2024-03-06T01:12:04;26;23;
78408;PMS5003;67697;50.750;-3.270;2024-03-06T01:14:30;26;16;
78408;PMS5003;67697;50.750;-3.270;2024-03-06T01:16:56;20;15;
78408;PMS5003;67697;50.750;-3.270;2024-03-06T01:19:23;22;16;
78408;PMS5003;67697;50.750;-3.270;2024-03-06T01:21:47;23;22;
78408;PMS5003;67697;50.750;-3.270;2024-03-06T01:24:12;25;19;
78408;PMS5003;67697;50.750;-3.270;2024-03-06T01:26:37;26;22;
78408;PMS5003;67697;50.750;-3.270;2024-03-06T01:29:03;25;23;
78408;PMS5003;67697;50.750;-3.270;2024-03-06T01:31:28;22;15;
78408;PMS5003;67697;50.750;-3.270;2024-03-06T01:33:54;22;16;
78408;PMS5003;67697;50.750;-3.270;2024-03-06T01:36:19;20;16;
78408;PMS5003;67697;50.750;-3.270;2024-03-06T01:38:45;15;15;
78408;PMS5003;67697;50.750;-3.270;2024-03-06T01:41:10;13;13;
78408;PMS5003;67697;50.750;-3.270;2024-03-06T01:43:38;13;13;
78408;PMS5003;67697;50.750;-3.270;2024-03-06T01:46:02;13;13;
78408;PMS5003;67697;50.750;-3.270;2024-03-06T01:48:28;16;13;
78408;PMS5003;67697;50.750;-3.270;2024-03-06T01:50:53;17;12;
78408;PMS5003;67697;50.750;-3.270;2024-03-06T01:53:18;20;13;
78408;PMS5003;67697;50.750;-3.270;2024-03-06T01:55:44;13;12;
78408;PMS5003;67697;50.750;-3.270;2024-03-06T01:58:10;16;13;
78408;PMS5003;67697;50.750;-3.270;2024-03-06T02:00:35;12;10;
78408;PMS5003;67697;50.750;-3.270;2024-03-06T02:03:00;10;10;
78408;PMS5003;67697;50.750;-3.270;2024-03-06T02:05:27;9;8;
78408;PMS5003;67697;50.750;-3.270;2024-03-06T02:07:51;17;12;
78408;PMS5003;67697;50.750;-3.270;2024-03-06T02:10:17;10;10;
78408;PMS5003;67697;50.750;-3.270;2024-03-06T02:12:43;10;10;
78408;PMS5003;67697;50.750;-3.270;2024-03-06T02:15:08;12;12;
78408;PMS5003;67697;50.750;-3.270;2024-03-06T02:17:34;14;12;
78408;PMS5003;67697;50.750;-3.270;2024-03-06T02:20:01;13;10;
78408;PMS5003;67697;50.750;-3.270;2024-03-06T02:22:26;17;10;
78408;PMS5003;67697;50.750;-3.270;2024-03-06T02:24:51;13;10;
78408;PMS5003;67697;50.750;-3.270;2024-03-06T02:27:16;14;14;
78408;PMS5003;67697;50.750;-3.270;2024-03-06T02:29:42;18;14;
78408;PMS5003;67697;50.750;-3.270;2024-03-06T02:32:07;12;12;
78408;PMS5003;67697;50.750;-3.270;2024-03-06T02:34:32;10;9;
78408;PMS5003;67697;50.750;-3.270;2024-03-06T02:36:58;10;10;
78408;PMS5003;67697;50.750;-3.270;2024-03-06T02:39:24;16;13;
78408;PMS5003;67697;50.750;-3.270;2024-03-06T02:41:49;12;10;
78408;PMS5003;67697;50.750;-3.270;2024-03-06T02:44:15;16;10;
78408;PMS5003;67697;50.750;-3.270;2024-03-06T02:46:40;12;10;
78408;PMS5003;67697;50.750;-3.270;2024-03-06T02:49:06;12;10;
78408;PMS5003;67697;50.750;-3.270;2024-03-06T02:51:32;18;15;
78408;PMS5003;67697;50.750;-3.270;2024-03-06T02:53:57;13;12;
78408;PMS5003;67697;50.750;-3.270;2024-03-06T02:56:22;16;12;
78408;PMS5003;67697;50.750;-3.270;2024-03-06T02:58:48;15;13;
78408;PMS5003;67697;50.750;-3.270;2024-03-06T03:01:14;13;12;
78408;PMS5003;67697;50.750;-3.270;2024-03-06T03:03:40;19;13;
78408;PMS5003;67697;50.750;-3.270;2024-03-06T03:06:05;14;14;
78408;PMS5003;67697;50.750;-3.270;2024-03-06T03:08:30;16;15;
78408;PMS5003;67697;50.750;-3.270;2024-03-06T03:10:56;23;16;
78408;PMS5003;67697;50.750;-3.270;2024-03-06T03:13:21;14;12;
78408;PMS5003;67697;50.750;-3.270;2024-03-06T03:15:47;15;12;
78408;PMS5003;67697;50.750;-3.270;2024-03-06T03:18:12;11;11;
78408;PMS5003;67697;50.750;-3.270;2024-03-06T03:20:37;15;13;
78408;PMS5003;67697;50.750;-3.270;2024-03-06T03:23:03;15;9;
78408;PMS5003;67697;50.750;-3.270;2024-03-06T03:25:28;11;11;
78408;PMS5003;67697;50.750;-3.270;2024-03-06T03:27:53;13;9;
78408;PMS5003;67697;50.750;-3.270;2024-03-06T03:30:19;11;11;
78408;PMS5003;67697;50.750;-3.270;2024-03-06T03:32:44;13;13;
78408;PMS5003;67697;50.750;-3.270;2024-03-06T03:35:10;10;9;
78408;PMS5003;67697;50.750;-3.270;2024-03-06T03:37:35;10;8;
78408;PMS5003;67697;50.750;-3.270;2024-03-06T03:40:01;17;12;
78408;PMS5003;67697;50.750;-3.270;2024-03-06T03:42:31;14;13;
78408;PMS5003;67697;50.750;-3.270;2024-03-06T03:44:52;14;12;
78408;PMS5003;67697;50.750;-3.270;2024-03-06T03:47:17;13;12;
78408;PMS5003;67697;50.750;-3.270;2024-03-06T03:49:43;13;11;
78408;PMS5003;67697;50.750;-3.270;2024-03-06T03:52:09;9;9;
78408;PMS5003;67697;50.750;-3.270;2024-03-06T03:54:34;12;11;
78408;PMS5003;67697;50.750;-3.270;2024-03-06T03:57:00;12;11;
78408;PMS5003;67697;50.750;-3.270;2024-03-06T03:59:25;16;12;
78408;PMS5003;67697;50.750;-3.270;2024-03-06T04:01:51;12;9;
78408;PMS5003;67697;50.750;-3.270;2024-03-06T04:04:16;9;9;
78408;PMS5003;67697;50.750;-3.270;2024-03-06T04:06:42;9;8;
78408;PMS5003;67697;50.750;-3.270;2024-03-06T04:09:07;9;9;
78408;PMS5003;67697;50.750;-3.270;2024-03-06T04:11:33;9;7;
78408;PMS5003;67697;50.750;-3.270;2024-03-06T04:13:58;8;8;
78408;PMS5003;67697;50.750;-3.270;2024-03-06T04:16:24;11;8;
78408;PMS5003;67697;50.750;-3.270;2024-03-06T04:18:49;11;9;
78408;PMS5003;67697;50.750;-3.270;2024-03-06T04:21:16;12;9;
78408;PMS5003;67697;50.750;-3.270;2024-03-06T04:23:40;9;9;
78408;PMS5003;67697;50.750;-3.270;2024-03-06T04:26:06;12;8;
78408;PMS5003;67697;50.750;-3.270;2024-03-06T04:28:31;15;9;
78408;PMS5003;67697;50.750;-3.270;2024-03-06T04:30:56;12;9;
78408;PMS5003;67697;50.750;-3.270;2024-03-06T04:33:22;11;8;
78408;PMS5003;67697;50.750;-3.270;2024-03-06T04:35:48;11;11;
78408;PMS5003;67697;50.750;-3.270;2024-03-06T04:38:13;8;7;
78408;PMS5003;67697;50.750;-3.270;2024-03-06T04:40:39;7;7;
78408;PMS5003;67697;50.750;-3.270;2024-03-06T04:43:04;9;7;
78408;PMS5003;67697;50.750;-3.270;2024-03-06T04:45:30;12;11;
78408;PMS5003;67697;50.750;-3.270;2024-03-06T04:47:55;4;4;
78408;PMS5003;67697;50.750;-3.270;2024-03-06T04:50:21;8;7;
78408;PMS5003;67697;50.750;-3.270;2024-03-06T04:52:46;7;7;
78408;PMS5003;67697;50.750;-3.270;2024-03-06T04:55:11;11;8;
78408;PMS5003;67697;50.750;-3.270;2024-03-06T04:57:37;9;9;
78408;PMS5003;67697;50.750;-3.270;2024-03-06T05:00:02;12;9;
78408;PMS5003;67697;50.750;-3.270;2024-03-06T05:02:28;8;8;
78408;PMS5003;67697;50.750;-3.270;2024-03-06T05:04:54;12;8;
78408;PMS5003;67697;50.750;-3.270;2024-03-06T05:07:19;8;6;
78408;PMS5003;67697;50.750;-3.270;2024-03-06T05:09:44;12;9;
78408;PMS5003;67697;50.750;-3.270;2024-03-06T05:12:10;11;8;
78408;PMS5003;67697;50.750;-3.270;2024-03-06T05:14:36;7;7;
78408;PMS5003;67697;50.750;-3.270;2024-03-06T05:17:01;8;5;
78408;PMS5003;67697;50.750;-3.270;2024-03-06T05:19:27;6;6;
78408;PMS5003;67697;50.750;-3.270;2024-03-06T05:21:52;5;4;
78408;PMS5003;67697;50.750;-3.270;2024-03-06T05:24:18;6;4;
78408;PMS5003;67697;50.750;-3.270;2024-03-06T05:26:43;5;5;
78408;PMS5003;67697;50.750;-3.270;2024-03-06T05:29:08;11;5;
78408;PMS5003;67697;50.750;-3.270;2024-03-06T05:31:34;12;8;
78408;PMS5003;67697;50.750;-3.270;2024-03-06T05:33:59;6;5;
78408;PMS5003;67697;50.750;-3.270;2024-03-06T05:36:24;9;7;
78408;PMS5003;67697;50.750;-3.270;2024-03-06T05:38:50;8;8;
78408;PMS5003;67697;50.750;-3.270;2024-03-06T05:41:16;15;12;
78408;PMS5003;67697;50.750;-3.270;2024-03-06T05:43:41;11;8;
78408;PMS5003;67697;50.750;-3.270;2024-03-06T05:46:07;9;8;
78408;PMS5003;67697;50.750;-3.270;2024-03-06T05:48:33;8;5;
78408;PMS5003;67697;50.750;-3.270;2024-03-06T05:50:58;9;8;
78408;PMS5003;67697;50.750;-3.270;2024-03-06T05:53:24;12;9;
78408;PMS5003;67697;50.750;-3.270;2024-03-06T05:55:49;11;11;
78408;PMS5003;67697;50.750;-3.270;2024-03-06T05:58:15;14;9;
78408;PMS5003;67697;50.750;-3.270;2024-03-06T06:00:40;12;7;
78408;PMS5003;67697;50.750;-3.270;2024-03-06T06:03:05;19;9;
78408;PMS5003;67697;50.750;-3.270;2024-03-06T06:05:30;8;7;
78408;PMS5003;67697;50.750;-3.270;2024-03-06T06:07:55;11;7;
78408;PMS5003;67697;50.750;-3.270;2024-03-06T06:10:20;5;5;
78408;PMS5003;67697;50.750;-3.270;2024-03-06T06:12:45;8;8;
78408;PMS5003;67697;50.750;-3.270;2024-03-06T06:15:10;11;9;
78408;PMS5003;67697;50.750;-3.270;2024-03-06T06:17:36;14;10;
78408;PMS5003;67697;50.750;-3.270;2024-03-06T06:20:02;11;8;
78408;PMS5003;67697;50.750;-3.270;2024-03-06T06:22:27;14;8;
78408;PMS5003;67697;50.750;-3.270;2024-03-06T06:24:52;11;9;
78408;PMS5003;67697;50.750;-3.270;2024-03-06T06:27:18;10;10;
78408;PMS5003;67697;50.750;-3.270;2024-03-06T06:29:43;10;5;
78408;PMS5003;67697;50.750;-3.270;2024-03-06T06:32:09;12;12;
78408;PMS5003;67697;50.750;-3.270;2024-03-06T06:34:34;34;25;
78408;PMS5003;67697;50.750;-3.270;2024-03-06T06:36:59;30;24;
78408;PMS5003;67697;50.750;-3.270;2024-03-06T06:39:25;54;48;
78408;PMS5003;67697;50.750;-3.270;2024-03-06T06:41:50;51;42;
78408;PMS5003;67697;50.750;-3.270;2024-03-06T06:44:16;33;27;
78408;PMS5003;67697;50.750;-3.270;2024-03-06T06:46:41;28;25;
78408;PMS5003;67697;50.750;-3.270;2024-03-06T06:49:06;33;27;
78408;PMS5003;67697;50.750;-3.270;2024-03-06T06:51:31;57;38;
78408;PMS5003;67697;50.750;-3.270;2024-03-06T06:53:57;27;27;
78408;PMS5003;67697;50.750;-3.270;2024-03-06T06:56:22;30;27;
78408;PMS5003;67697;50.750;-3.270;2024-03-06T06:58:47;31;24;
78408;PMS5003;67697;50.750;-3.270;2024-03-06T07:01:15;18;17;
78408;PMS5003;67697;50.750;-3.270;2024-03-06T07:03:39;22;14;
78408;PMS5003;67697;50.750;-3.270;2024-03-06T07:06:05;17;17;
78408;PMS5003;67697;50.750;-3.270;2024-03-06T07:08:30;14;9;
78408;PMS5003;67697;50.750;-3.270;2024-03-06T07:10:56;17;14;
78408;PMS5003;67697;50.750;-3.270;2024-03-06T07:13:22;11;11;
78408;PMS5003;67697;50.750;-3.270;2024-03-06T07:15:47;21;18;
78408;PMS5003;67697;50.750;-3.270;2024-03-06T07:18:12;29;22;
78408;PMS5003;67697;50.750;-3.270;2024-03-06T07:20:39;28;26;
78408;PMS5003;67697;50.750;-3.270;2024-03-06T07:23:04;21;18;
78408;PMS5003;67697;50.750;-3.270;2024-03-06T07:25:29;18;18;
78408;PMS5003;67697;50.750;-3.270;2024-03-06T07:27:54;16;16;
78408;PMS5003;67697;50.750;-3.270;2024-03-06T07:30:20;22;14;
78408;PMS5003;67697;50.750;-3.270;2024-03-06T07:32:46;22;15;
78408;PMS5003;67697;50.750;-3.270;2024-03-06T07:35:11;18;18;
78408;PMS5003;67697;50.750;-3.270;2024-03-06T07:37:36;16;14;
78408;PMS5003;67697;50.750;-3.270;2024-03-06T07:40:01;23;16;
78408;PMS5003;67697;50.750;-3.270;2024-03-06T07:42:27;29;24;
78408;PMS5003;67697;50.750;-3.270;2024-03-06T07:44:52;24;20;
78408;PMS5003;67697;50.750;-3.270;2024-03-06T07:47:18;28;23;
78408;PMS5003;67697;50.750;-3.270;2024-03-06T07:49:44;26;26;
78408;PMS5003;67697;50.750;-3.270;2024-03-06T07:52:11;23;18;
78408;PMS5003;67697;50.750;-3.270;2024-03-06T07:54:34;33;23;
78408;PMS5003;67697;50.750;-3.270;2024-03-06T07:57:00;36;30;
78408;PMS5003;67697;50.750;-3.270;2024-03-06T07:59:25;36;26;
78408;PMS5003;67697;50.750;-3.270;2024-03-06T08:01:50;26;23;
78408;PMS5003;67697;50.750;-3.270;2024-03-06T08:04:15;25;19;
78408;PMS5003;67697;50.750;-3.270;2024-03-06T08:11:32;19;15;
78408;PMS5003;67697;50.750;-3.270;2024-03-06T08:13:58;20;13;
78408;PMS5003;67697;50.750;-3.270;2024-03-06T08:16:23;12;9;
78408;PMS5003;67697;50.750;-3.270;2024-03-06T08:18:48;12;10;
78408;PMS5003;67697;50.750;-3.270;2024-03-06T08:21:14;12;9;
78408;PMS5003;67697;50.750;-3.270;2024-03-06T08:23:40;19;17;
78408;PMS5003;67697;50.750;-3.270;2024-03-06T08:26:05;21;16;
78408;PMS5003;67697;50.750;-3.270;2024-03-06T08:28:30;18;10;
78408;PMS5003;67697;50.750;-3.270;2024-03-06T08:30:56;13;13;
78408;PMS5003;67697;50.750;-3.270;2024-03-06T08:33:21;17;12;
78408;PMS5003;67697;50.750;-3.270;2024-03-06T08:35:47;14;12;
78408;PMS5003;67697;50.750;-3.270;2024-03-06T08:38:13;13;9;
78408;PMS5003;67697;50.750;-3.270;2024-03-06T08:40:39;13;10;
78408;PMS5003;67697;50.750;-3.270;2024-03-06T08:43:05;10;8;
78408;PMS5003;67697;50.750;-3.270;2024-03-06T08:45:30;13;9;
78408;PMS5003;67697;50.750;-3.270;2024-03-06T08:47:56;10;7;
78408;PMS5003;67697;50.750;-3.270;2024-03-06T08:50:22;11;9;
78408;PMS5003;67697;50.750;-3.270;2024-03-06T08:52:47;17;12;
78408;PMS5003;67697;50.750;-3.270;2024-03-06T08:55:13;16;12;
78408;PMS5003;67697;50.750;-3.270;2024-03-06T08:57:39;11;9;
78408;PMS5003;67697;50.750;-3.270;2024-03-06T09:00:05;13;12;
78408;PMS5003;67697;50.750;-3.270;2024-03-06T09:02:30;18;13;
78408;PMS5003;67697;50.750;-3.270;2024-03-06T09:04:56;17;13;
78408;PMS5003;67697;50.750;-3.270;2024-03-06T09:07:22;17;11;
78408;PMS5003;67697;50.750;-3.270;2024-03-06T09:09:47;19;14;
78408;PMS5003;67697;50.750;-3.270;2024-03-06T09:12:13;11;10;
78408;PMS5003;67697;50.750;-3.270;2024-03-06T09:14:39;10;10;
78408;PMS5003;67697;50.750;-3.270;2024-03-06T09:17:05;11;10;
78408;PMS5003;67697;50.750;-3.270;2024-03-06T09:19:30;11;11;
78408;PMS5003;67697;50.750;-3.270;2024-03-06T09:21:56;7;7;
78408;PMS5003;67697;50.750;-3.270;2024-03-06T09:24:21;10;8;
78408;PMS5003;67697;50.750;-3.270;2024-03-06T09:26:47;10;8;
78408;PMS5003;67697;50.750;-3.270;2024-03-06T09:29:12;10;6;
78408;PMS5003;67697;50.750;-3.270;2024-03-06T09:31:38;8;8;
78408;PMS5003;67697;50.750;-3.270;2024-03-06T09:34:04;12;7;
78408;PMS5003;67697;50.750;-3.270;2024-03-06T09:36:29;7;6;
78408;PMS5003;67697;50.750;-3.270;2024-03-06T09:38:55;11;8;
78408;PMS5003;67697;50.750;-3.270;2024-03-06T09:41:20;12;8;
78408;PMS5003;67697;50.750;-3.270;2024-03-06T09:43:46;7;6;
78408;PMS5003;67697;50.750;-3.270;2024-03-06T09:46:11;7;3;
78408;PMS5003;67697;50.750;-3.270;2024-03-06T09:48:37;9;6;
78408;PMS5003;67697;50.750;-3.270;2024-03-06T09:51:03;7;4;
78408;PMS5003;67697;50.750;-3.270;2024-03-06T09:53:28;8;4;
78408;PMS5003;67697;50.750;-3.270;2024-03-06T09:55:54;4;4;
78408;PMS5003;67697;50.750;-3.270;2024-03-06T09:58:20;2;2;
78408;PMS5003;67697;50.750;-3.270;2024-03-06T10:00:45;7;3;
78408;PMS5003;67697;50.750;-3.270;2024-03-06T10:03:11;9;4;
78408;PMS5003;67697;50.750;-3.270;2024-03-06T10:05:37;2;2;
78408;PMS5003;67697;50.750;-3.270;2024-03-06T10:08:02;4;3;
78408;PMS5003;67697;50.750;-3.270;2024-03-06T10:10:30;4;3;
78408;PMS5003;67697;50.750;-3.270;2024-03-06T10:12:54;3;2;
78408;PMS5003;67697;50.750;-3.270;2024-03-06T10:15:20;7;4;
78408;PMS5003;67697;50.750;-3.270;2024-03-06T10:17:45;9;4;
78408;PMS5003;67697;50.750;-3.270;2024-03-06T10:20:17;9;2;
78408;PMS5003;67697;50.750;-3.270;2024-03-06T10:22:37;6;3;
78408;PMS5003;67697;50.750;-3.270;2024-03-06T10:25:02;7;2;
78408;PMS5003;67697;50.750;-3.270;2024-03-06T10:27:27;6;4;
78408;PMS5003;67697;50.750;-3.270;2024-03-06T10:30:02;3;2;
78408;PMS5003;67697;50.750;-3.270;2024-03-06T10:32:19;6;6;
78408;PMS5003;67697;50.750;-3.270;2024-03-06T10:34:45;4;3;
78408;PMS5003;67697;50.750;-3.270;2024-03-06T10:37:10;7;2;
78408;PMS5003;67697;50.750;-3.270;2024-03-06T10:39:37;7;5;
78408;PMS5003;67697;50.750;-3.270;2024-03-06T10:42:02;8;4;
78408;PMS5003;67697;50.750;-3.270;2024-03-06T10:44:27;4;3;
78408;PMS5003;67697;50.750;-3.270;2024-03-06T10:46:55;5;3;
78408;PMS5003;67697;50.750;-3.270;2024-03-06T10:49:18;9;4;
78408;PMS5003;67697;50.750;-3.270;2024-03-06T10:51:44;8;3;
78408;PMS5003;67697;50.750;-3.270;2024-03-06T10:54:10;2;2;
78408;PMS5003;67697;50.750;-3.270;2024-03-06T10:56:35;5;4;
78408;PMS5003;67697;50.750;-3.270;2024-03-06T10:59:01;10;7;
78408;PMS5003;67697;50.750;-3.270;2024-03-06T11:01:27;11;7;
78408;PMS5003;67697;50.750;-3.270;2024-03-06T11:03:52;9;4;
78408;PMS5003;67697;50.750;-3.270;2024-03-06T11:06:18;5;5;
78408;PMS5003;67697;50.750;-3.270;2024-03-06T11:08:43;4;2;
78408;PMS5003;67697;50.750;-3.270;2024-03-06T11:13:35;4;3;
78408;PMS5003;67697;50.750;-3.270;2024-03-06T11:16:00;5;4;
78408;PMS5003;67697;50.750;-3.270;2024-03-06T11:20:51;7;3;
78408;PMS5003;67697;50.750;-3.270;2024-03-06T11:23:17;9;9;
78408;PMS5003;67697;50.750;-3.270;2024-03-06T11:28:09;7;7;
78408;PMS5003;67697;50.750;-3.270;2024-03-06T11:30:34;10;5;
78408;PMS5003;67697;50.750;-3.270;2024-03-06T11:33:00;10;7;
78408;PMS5003;67697;50.750;-3.270;2024-03-06T11:35:25;16;12;
78408;PMS5003;67697;50.750;-3.270;2024-03-06T11:37:51;10;3;
78408;PMS5003;67697;50.750;-3.270;2024-03-06T11:40:16;15;10;
78408;PMS5003;67697;50.750;-3.270;2024-03-06T11:42:41;8;5;
78408;PMS5003;67697;50.750;-3.270;2024-03-06T11:45:13;4;3;
78408;PMS5003;67697;50.750;-3.270;2024-03-06T11:47:42;6;6;
78408;PMS5003;67697;50.750;-3.270;2024-03-06T11:49:58;4;3;
78408;PMS5003;67697;50.750;-3.270;2024-03-06T11:52:24;24;21;
78408;PMS5003;67697;50.750;-3.270;2024-03-06T11:54:49;8;3;
78408;PMS5003;67697;50.750;-3.270;2024-03-06T11:57:15;10;4;
78408;PMS5003;67697;50.750;-3.270;2024-03-06T11:59:40;3;2;
78408;PMS5003;67697;50.750;-3.270;2024-03-06T12:02:06;4;2;
78408;PMS5003;67697;50.750;-3.270;2024-03-06T12:04:32;3;2;
78408;PMS5003;67697;50.750;-3.270;2024-03-06T12:06:57;5;2;
78408;PMS5003;67697;50.750;-3.270;2024-03-06T12:09:22;3;3;
78408;PMS5003;67697;50.750;-3.270;2024-03-06T12:11:48;3;3;
78408;PMS5003;67697;50.750;-3.270;2024-03-06T12:14:13;4;2;
78408;PMS5003;67697;50.750;-3.270;2024-03-06T12:16:39;3;3;
78408;PMS5003;67697;50.750;-3.270;2024-03-06T12:19:04;6;3;
78408;PMS5003;67697;50.750;-3.270;2024-03-06T12:21:31;3;3;
78408;PMS5003;67697;50.750;-3.270;2024-03-06T12:24:01;1;1;
78408;PMS5003;67697;50.750;-3.270;2024-03-06T12:26:23;6;5;
78408;PMS5003;67697;50.750;-3.270;2024-03-06T12:28:47;4;3;
78408;PMS5003;67697;50.750;-3.270;2024-03-06T12:31:12;14;11;
78408;PMS5003;67697;50.750;-3.270;2024-03-06T12:33:37;5;3;
78408;PMS5003;67697;50.750;-3.270;2024-03-06T12:36:04;6;4;
78408;PMS5003;67697;50.750;-3.270;2024-03-06T12:38:29;5;3;
78408;PMS5003;67697;50.750;-3.270;2024-03-06T12:40:54;9;6;
78408;PMS5003;67697;50.750;-3.270;2024-03-06T12:43:20;9;5;
78408;PMS5003;67697;50.750;-3.270;2024-03-06T12:45:46;4;3;
78408;PMS5003;67697;50.750;-3.270;2024-03-06T12:48:11;4;3;
78408;PMS5003;67697;50.750;-3.270;2024-03-06T12:50:37;2;2;
78408;PMS5003;67697;50.750;-3.270;2024-03-06T12:53:03;4;3;
78408;PMS5003;67697;50.750;-3.270;2024-03-06T12:55:28;4;2;
78408;PMS5003;67697;50.750;-3.270;2024-03-06T12:57:54;3;2;
78408;PMS5003;67697;50.750;-3.270;2024-03-06T13:00:19;4;3;
78408;PMS5003;67697;50.750;-3.270;2024-03-06T13:02:45;6;4;
78408;PMS5003;67697;50.750;-3.270;2024-03-06T13:05:11;4;3;
78408;PMS5003;67697;50.750;-3.270;2024-03-06T13:07:36;3;2;
78408;PMS5003;67697;50.750;-3.270;2024-03-06T13:10:02;6;4;
78408;PMS5003;67697;50.750;-3.270;2024-03-06T13:12:27;3;2;
78408;PMS5003;67697;50.750;-3.270;2024-03-06T13:14:53;5;4;
78408;PMS5003;67697;50.750;-3.270;2024-03-06T13:17:19;4;2;
78408;PMS5003;67697;50.750;-3.270;2024-03-06T13:19:44;8;5;
78408;PMS5003;67697;50.750;-3.270;2024-03-06T13:22:09;6;6;
78408;PMS5003;67697;50.750;-3.270;2024-03-06T13:24:35;5;2;
78408;PMS5003;67697;50.750;-3.270;2024-03-06T13:27:01;3;3;
78408;PMS5003;67697;50.750;-3.270;2024-03-06T13:29:26;3;3;
78408;PMS5003;67697;50.750;-3.270;2024-03-06T13:31:52;5;3;
78408;PMS5003;67697;50.750;-3.270;2024-03-06T13:34:19;8;4;
78408;PMS5003;67697;50.750;-3.270;2024-03-06T13:36:43;4;1;
78408;PMS5003;67697;50.750;-3.270;2024-03-06T13:39:08;1;1;
78408;PMS5003;67697;50.750;-3.270;2024-03-06T13:41:34;4;3;
78408;PMS5003;67697;50.750;-3.270;2024-03-06T13:44:00;3;2;
78408;PMS5003;67697;50.750;-3.270;2024-03-06T13:46:25;9;4;
78408;PMS5003;67697;50.750;-3.270;2024-03-06T13:48:51;3;2;
78408;PMS5003;67697;50.750;-3.270;2024-03-06T13:51:16;5;5;
78408;PMS5003;67697;50.750;-3.270;2024-03-06T13:53:42;8;8;
78408;PMS5003;67697;50.750;-3.270;2024-03-06T13:56:07;5;5;
78408;PMS5003;67697;50.750;-3.270;2024-03-06T13:58:33;4;3;
78408;PMS5003;67697;50.750;-3.270;2024-03-06T14:00:59;15;11;
78408;PMS5003;67697;50.750;-3.270;2024-03-06T14:03:24;5;3;
78408;PMS5003;67697;50.750;-3.270;2024-03-06T14:05:49;2;2;
78408;PMS5003;67697;50.750;-3.270;2024-03-06T14:08:15;3;3;
78408;PMS5003;67697;50.750;-3.270;2024-03-06T14:10:40;6;2;
78408;PMS5003;67697;50.750;-3.270;2024-03-06T14:13:06;3;2;
78408;PMS5003;67697;50.750;-3.270;2024-03-06T14:15:32;4;2;
78408;PMS5003;67697;50.750;-3.270;2024-03-06T14:17:57;3;3;
78408;PMS5003;67697;50.750;-3.270;2024-03-06T14:20:23;5;2;
78408;PMS5003;67697;50.750;-3.270;2024-03-06T14:22:49;2;2;
78408;PMS5003;67697;50.750;-3.270;2024-03-06T14:25:14;11;6;
78408;PMS5003;67697;50.750;-3.270;2024-03-06T14:27:40;6;3;
78408;PMS5003;67697;50.750;-3.270;2024-03-06T14:30:06;1;1;
78408;PMS5003;67697;50.750;-3.270;2024-03-06T14:32:31;7;5;
78408;PMS5003;67697;50.750;-3.270;2024-03-06T14:34:57;2;2;
78408;PMS5003;67697;50.750;-3.270;2024-03-06T14:37:22;3;3;
78408;PMS5003;67697;50.750;-3.270;2024-03-06T14:39:48;6;5;
78408;PMS5003;67697;50.750;-3.270;2024-03-06T14:42:13;5;4;
78408;PMS5003;67697;50.750;-3.270;2024-03-06T14:44:39;4;3;
78408;PMS5003;67697;50.750;-3.270;2024-03-06T14:47:05;5;3;
78408;PMS5003;67697;50.750;-3.270;2024-03-06T14:49:30;6;3;
78408;PMS5003;67697;50.750;-3.270;2024-03-06T14:51:56;2;2;
78408;PMS5003;67697;50.750;-3.270;2024-03-06T14:54:21;2;2;
78408;PMS5003;67697;50.750;-3.270;2024-03-06T14:56:47;3;3;
78408;PMS5003;67697;50.750;-3.270;2024-03-06T14:59:12;3;3;
78408;PMS5003;67697;50.750;-3.270;2024-03-06T15:01:38;2;2;
78408;PMS5003;67697;50.750;-3.270;2024-03-06T15:04:04;3;2;
78408;PMS5003;67697;50.750;-3.270;2024-03-06T15:06:29;5;2;
78408;PMS5003;67697;50.750;-3.270;2024-03-06T15:08:55;4;3;
78408;PMS5003;67697;50.750;-3.270;2024-03-06T15:11:21;2;2;
78408;PMS5003;67697;50.750;-3.270;2024-03-06T15:13:46;5;3;
78408;PMS5003;67697;50.750;-3.270;2024-03-06T15:16:11;3;3;
78408;PMS5003;67697;50.750;-3.270;2024-03-06T15:18:37;3;2;
78408;PMS5003;67697;50.750;-3.270;2024-03-06T15:21:03;3;3;
78408;PMS5003;67697;50.750;-3.270;2024-03-06T15:23:28;4;4;
78408;PMS5003;67697;50.750;-3.270;2024-03-06T15:25:54;5;2;
78408;PMS5003;67697;50.750;-3.270;2024-03-06T15:28:21;9;3;
78408;PMS5003;67697;50.750;-3.270;2024-03-06T15:30:45;2;2;
78408;PMS5003;67697;50.750;-3.270;2024-03-06T15:33:11;5;2;
78408;PMS5003;67697;50.750;-3.270;2024-03-06T15:35:37;4;3;
78408;PMS5003;67697;50.750;-3.270;2024-03-06T15:38:03;2;2;
78408;PMS5003;67697;50.750;-3.270;2024-03-06T15:40:28;1;1;
78408;PMS5003;67697;50.750;-3.270;2024-03-06T15:42:54;3;2;
78408;PMS5003;67697;50.750;-3.270;2024-03-06T15:45:19;5;2;
78408;PMS5003;67697;50.750;-3.270;2024-03-06T15:47:45;2;2;
78408;PMS5003;67697;50.750;-3.270;2024-03-06T15:50:11;2;2;
78408;PMS5003;67697;50.750;-3.270;2024-03-06T15:52:36;2;2;
78408;PMS5003;67697;50.750;-3.270;2024-03-06T15:55:02;3;2;
78408;PMS5003;67697;50.750;-3.270;2024-03-06T15:57:27;2;1;
78408;PMS5003;67697;50.750;-3.270;2024-03-06T15:59:53;7;3;
78408;PMS5003;67697;50.750;-3.270;2024-03-06T16:02:18;1;1;
78408;PMS5003;67697;50.750;-3.270;2024-03-06T16:04:44;5;2;
78408;PMS5003;67697;50.750;-3.270;2024-03-06T16:07:10;1;1;
78408;PMS5003;67697;50.750;-3.270;2024-03-06T16:09:35;3;2;
78408;PMS5003;67697;50.750;-3.270;2024-03-06T16:12:01;4;3;
78408;PMS5003;67697;50.750;-3.270;2024-03-06T16:14:27;4;2;
78408;PMS5003;67697;50.750;-3.270;2024-03-06T16:16:52;3;2;
78408;PMS5003;67697;50.750;-3.270;2024-03-06T16:19:18;7;4;